»·PEaware :: N753B KSMX-KBFL

N753B :: KSMX-KBFL

FLIGHT INFORMATION

Flight Status: Arrived
Operator: Privately registered:
United States
More flights under this callsign
Pilot: Bill H. (23183)
Aircraft: CESSNA 172 SKYHAWK
(C172)
More flights by this aircraft type
Origin: KSMX Santa Maria Pub/Capt Hancock
United States
Destination: KBFL Meadows
United States
More flights between these airports :: More routes between these airports
Route: +
File this flight plan on PilotEdge
Remarks: CAT 5 FLight
Altitude:
(Current/Filed)
3,500ft
Speed:
(Current/Filed)
110kts
Departed: 07-Feb-19 01:24 PM
Arrived: 07-Feb-19 02:06 PM
Distance/Time
Traveled:
76nm/0:42
Distance/Time
To Go:
Arrived

Flight Plot

Page will automatically refresh every two minutes.


Map Options




Map Legend


Flown Route
Filed Route
Departure Airport
Arrival Airport
Navaid (VOR, NDB)
Fix

Horizontal Profiles

Position Reports

Time Latitude Longitude Heading Altitude Ground
Speed
07-Feb-19 13:09 34.896952 -120.446159 273 265ft 0kts
07-Feb-19 13:10 34.896952 -120.446159 273 265ft 0kts
07-Feb-19 13:11 34.896952 -120.446159 273 265ft 0kts
07-Feb-19 13:12 34.896952 -120.446159 273 265ft 0kts
07-Feb-19 13:13 34.896952 -120.446159 273 265ft 0kts
07-Feb-19 13:14 34.896856 -120.446830 314 265ft 0kts
07-Feb-19 13:15 34.894817 -120.445123 227 265ft 14kts
07-Feb-19 13:16 34.893776 -120.445653 181 265ft 0kts
07-Feb-19 13:17 34.893777 -120.445652 181 265ft 0kts
07-Feb-19 13:18 34.893777 -120.445652 181 265ft 0kts
07-Feb-19 13:19 34.893777 -120.445652 181 265ft 0kts
07-Feb-19 13:20 34.893777 -120.445652 181 265ft 0kts
07-Feb-19 13:21 34.893147 -120.445807 221 265ft 8kts
07-Feb-19 13:22 34.893667 -120.446909 314 265ft 21kts
07-Feb-19 13:23 34.910006 -120.462493 327 986ft 87kts
07-Feb-19 13:25 34.934068 -120.458063 44 1890ft 101kts
07-Feb-19 13:26 34.954395 -120.433902 54 2695ft 107kts
07-Feb-19 13:27 34.970481 -120.399057 60 3250ft 112kts
07-Feb-19 13:28 34.987468 -120.362872 60 3497ft 128kts
07-Feb-19 13:29 35.005510 -120.324529 60 3907ft 108kts
07-Feb-19 13:30 35.023102 -120.287421 59 4020ft 128kts
07-Feb-19 13:31 35.042284 -120.247001 59 4020ft 130kts
07-Feb-19 13:32 35.061069 -120.207504 59 4020ft 130kts
07-Feb-19 13:33 35.079758 -120.168354 59 4224ft 119kts
07-Feb-19 13:34 35.097194 -120.131989 59 4501ft 126kts
07-Feb-19 13:35 35.116157 -120.092583 59 4499ft 129kts
07-Feb-19 13:36 35.126185 -120.049437 89 4552ft 125kts
07-Feb-19 13:37 35.126587 -120.008473 89 5056ft 112kts
07-Feb-19 13:38 35.127043 -119.969332 88 5505ft 116kts
07-Feb-19 13:39 35.127584 -119.925680 88 5493ft 128kts
07-Feb-19 13:40 35.130905 -119.880755 75 5494ft 128kts
07-Feb-19 13:40 35.141110 -119.844667 67 5360ft 136kts
07-Feb-19 13:42 35.159228 -119.794218 65 5264ft 129kts
07-Feb-19 13:43 35.174818 -119.753055 64 5265ft 129kts
07-Feb-19 13:43 35.187779 -119.719083 64 5265ft 129kts
07-Feb-19 13:44 35.203414 -119.678119 64 5264ft 126kts
07-Feb-19 13:46 35.221166 -119.631559 64 5265ft 124kts
07-Feb-19 13:47 35.231733 -119.589485 69 5265ft 124kts
07-Feb-19 13:47 35.243825 -119.555838 69 5264ft 124kts
07-Feb-19 13:48 35.251959 -119.512901 77 5265ft 124kts
07-Feb-19 13:50 35.260586 -119.462711 77 5265ft 124kts
07-Feb-19 13:50 35.266814 -119.426642 77 5026ft 128kts
07-Feb-19 13:51 35.274469 -119.382590 77 4506ft 126kts
07-Feb-19 13:52 35.280733 -119.340236 82 3996ft 123kts
07-Feb-19 13:53 35.285746 -119.297628 81 3481ft 123kts
07-Feb-19 13:54 35.290709 -119.255746 81 3175ft 108kts
07-Feb-19 13:55 35.295080 -119.219786 81 3178ft 100kts
07-Feb-19 13:56 35.299334 -119.184941 81 3179ft 99kts
07-Feb-19 13:57 35.297752 -119.150311 85 3143ft 100kts
07-Feb-19 13:58 35.315253 -119.123710 34 2849ft 99kts
07-Feb-19 13:59 35.335863 -119.100777 41 2726ft 99kts
07-Feb-19 14:00 35.356964 -119.078279 45 2526ft 98kts
07-Feb-19 14:01 35.378308 -119.057127 30 2139ft 98kts
07-Feb-19 14:02 35.397044 -119.039955 35 1462ft 84kts
07-Feb-19 14:03 35.417036 -119.040107 325 748ft 68kts
07-Feb-19 14:04 35.430557 -119.055709 313 484ft 55kts
07-Feb-19 14:05 35.438478 -119.065064 349 490ft 17kts
07-Feb-19 14:06 35.439638 -119.062908 74 495ft 0kts
07-Feb-19 14:07 35.440268 -119.062701 1 498ft 0kts
07-Feb-19 14:08 35.440055 -119.061483 140 499ft 15kts
07-Feb-19 14:09 35.435067 -119.055563 136 492ft 25kts
07-Feb-19 14:10 35.430856 -119.050365 130 492ft 17kts
07-Feb-19 14:11 35.428601 -119.046299 132 491ft 11kts
07-Feb-19 14:12 35.428327 -119.045558 64 491ft 0kts

Navigation Log

Ident Type
Flight plan parsing failed, navigation log unavailable